Time;durP1;ratioP1;P1;durP2;ratioP2;P2;SDS_P1;SDS_P2;PMS_P1;PMS_P2;Temp;Humidity;BMP_temperature;BMP_pressure;BME280_temperature;BME280_humidity;BME280_pressure;Samples;Min_cycle;Max_cycle;Signal;HPM_P1;HPM_P2
2022/01/21 00:01:27;;;;;;;8.23;2.85;;;4.30;74.60;;;;;;4990438;28;20038;-47
2022/01/21 00:03:55;;;;;;;11.13;2.13;;;4.30;74.70;;;;;;4999510;28;20038;-48
2022/01/21 00:06:22;;;;;;;10.23;2.60;;;4.40;74.90;;;;;;4991239;28;20061;-48
2022/01/21 00:08:53;;;;;;;5.43;1.80;;;4.40;74.90;;;;;;4990433;28;20125;-48
2022/01/21 00:11:20;;;;;;;7.88;2.58;;;4.40;75.00;;;;;;4988968;28;20560;-46
2022/01/21 00:13:47;;;;;;;4.88;2.33;;;4.50;75.00;;;;;;4988785;28;20046;-50
2022/01/21 00:16:17;;;;;;;6.95;2.50;;;4.50;74.80;;;;;;4990483;28;20042;-46
2022/01/21 00:30:15;;;;;;;8.70;2.03;;;4.60;74.40;;;;;;4997210;28;20577;-47
2022/01/21 00:32:44;;;;;;;7.78;2.75;;;4.60;74.20;;;;;;4989125;28;20046;-46
2022/01/21 00:35:13;;;;;;;8.27;2.47;;;4.60;74.00;;;;;;4993795;28;20038;-47
2022/01/21 00:37:40;;;;;;;8.25;2.20;;;4.60;73.90;;;;;;4997730;28;20046;-45
2022/01/21 00:40:11;;;;;;;8.35;2.13;;;4.60;73.80;;;;;;4994080;28;20049;-47
2022/01/21 00:45:13;;;;;;;10.27;3.10;;;4.60;73.70;;;;;;4992607;28;20049;-50
2022/01/21 00:47:42;;;;;;;11.55;2.15;;;4.50;73.60;;;;;;5002448;28;20054;-46
2022/01/21 00:50:10;;;;;;;13.07;2.60;;;4.50;73.70;;;;;;5002773;28;20042;-46
2022/01/21 00:52:37;;;;;;;7.45;2.67;;;4.50;73.70;;;;;;5010313;28;20513;-47
2022/01/21 00:55:06;;;;;;;9.55;2.85;;;4.40;73.70;;;;;;4998293;28;20104;-46
2022/01/21 00:57:33;;;;;;;11.43;2.42;;;4.40;73.80;;;;;;4996535;28;20050;-51
2022/01/21 01:00:05;;;;;;;10.32;2.40;;;4.40;73.90;;;;;;5003437;28;20517;-46
2022/01/21 01:02:32;;;;;;;9.32;2.55;;;4.30;74.00;;;;;;5011966;28;20505;-48
2022/01/21 01:04:59;;;;;;;13.23;3.17;;;4.30;74.00;;;;;;5001183;28;20030;-47
2022/01/21 01:07:25;;;;;;;11.55;3.15;;;4.30;74.10;;;;;;4991936;28;20498;-47
2022/01/21 01:09:55;;;;;;;12.10;2.72;;;4.30;74.10;;;;;;4998810;28;20065;-47
2022/01/21 01:20:36;;;;;;;10.55;2.50;;;4.20;74.50;;;;;;4995399;28;20042;-44
2022/01/21 01:23:51;;;;;;;7.82;2.13;;;4.20;74.70;;;;;;5014977;28;20882;-47
2022/01/21 01:28:43;;;;;;;9.95;3.17;;;4.20;75.10;;;;;;5009428;28;20049;-47
2022/01/21 01:31:10;;;;;;;8.52;3.17;;;4.20;75.30;;;;;;5011359;28;20045;-49
2022/01/21 01:33:41;;;;;;;12.55;3.03;;;4.20;75.50;;;;;;5005927;28;20124;-46
2022/01/21 01:36:08;;;;;;;7.85;2.40;;;4.30;75.50;;;;;;5005495;28;20077;-48
2022/01/21 01:41:24;;;;;;;8.52;2.13;;;4.40;75.70;;;;;;5008287;28;20050;-47
2022/01/21 01:49:37;;;;;;;5.30;2.30;;;4.50;75.50;;;;;;5006933;28;20577;-48
2022/01/21 01:52:09;;;;;;;9.10;2.35;;;4.50;75.30;;;;;;4987553;28;20049;-48
2022/01/21 01:54:39;;;;;;;7.47;2.22;;;4.60;75.20;;;;;;5002893;28;20037;-45
2022/01/21 01:57:09;;;;;;;5.70;1.70;;;4.60;74.90;;;;;;5010848;28;20050;-50
2022/01/21 01:59:36;;;;;;;7.97;1.90;;;4.60;74.70;;;;;;5003929;28;20057;-48
2022/01/21 02:02:09;;;;;;;7.43;3.03;;;4.60;74.60;;;;;;4999974;28;20096;-49
2022/01/21 02:04:37;;;;;;;7.80;2.42;;;4.60;74.70;;;;;;4998819;28;20121;-46
2022/01/21 02:07:07;;;;;;;7.57;2.20;;;4.60;74.60;;;;;;4990904;28;20101;-50
2022/01/21 02:09:34;;;;;;;6.72;2.38;;;4.50;74.50;;;;;;4994680;28;20046;-49
2022/01/21 02:12:02;;;;;;;10.38;2.10;;;4.50;74.50;;;;;;5013533;28;20107;-48
2022/01/21 02:14:36;;;;;;;8.95;2.05;;;4.60;74.50;;;;;;4997853;28;20096;-45
2022/01/21 02:17:18;;;;;;;7.85;2.25;;;4.50;74.50;;;;;;4973779;28;20058;-47
2022/01/21 02:22:36;;;;;;;11.30;3.88;;;4.50;74.50;;;;;;4998472;28;20042;-50
2022/01/21 02:25:19;;;;;;;7.15;2.60;;;4.40;74.50;;;;;;4992072;28;20077;-47
2022/01/21 02:27:47;;;;;;;8.85;3.15;;;4.40;74.70;;;;;;4992830;28;20042;-47
2022/01/21 02:30:18;;;;;;;9.10;2.47;;;4.40;74.80;;;;;;4997799;28;20062;-47
2022/01/21 02:32:50;;;;;;;9.82;3.28;;;4.40;75.00;;;;;;4998036;28;20060;-49
2022/01/21 02:35:18;;;;;;;12.05;4.28;;;4.40;75.20;;;;;;5002816;28;20061;-49
2022/01/21 02:37:46;;;;;;;10.00;2.95;;;4.40;75.30;;;;;;5006257;28;20050;-45
2022/01/21 02:40:14;;;;;;;7.88;3.13;;;4.40;75.30;;;;;;5003927;28;20065;-49
2022/01/21 02:42:41;;;;;;;9.95;2.95;;;4.40;75.30;;;;;;5000628;28;20501;-50
2022/01/21 02:45:11;;;;;;;9.07;2.95;;;4.40;76.00;;;;;;5008259;28;20568;-44
2022/01/21 02:47:37;;;;;;;10.02;2.83;;;4.50;75.50;;;;;;5000135;28;20092;-47
2022/01/21 02:50:05;;;;;;;5.75;2.45;;;4.50;75.40;;;;;;5006783;28;20042;-49
2022/01/21 02:52:40;;;;;;;9.70;2.53;;;4.50;75.40;;;;;;5000405;28;20513;-48
2022/01/21 02:55:09;;;;;;;8.88;2.88;;;4.50;75.20;;;;;;5008681;28;20049;-50
2022/01/21 02:57:36;;;;;;;6.57;2.20;;;4.50;75.00;;;;;;5000076;28;20058;-46
2022/01/21 03:00:05;;;;;;;11.15;3.25;;;4.50;74.80;;;;;;5009412;28;20050;-49
2022/01/21 03:02:34;;;;;;;12.45;3.08;;;4.50;74.80;;;;;;5004226;28;20104;-49
2022/01/21 03:05:10;;;;;;;8.80;2.42;;;4.50;74.60;;;;;;5002948;28;20442;-47
2022/01/21 03:07:39;;;;;;;7.13;2.15;;;4.50;74.60;;;;;;4992835;28;20053;-44
2022/01/21 03:10:06;;;;;;;6.55;2.03;;;4.40;74.50;;;;;;4992860;28;20038;-51
2022/01/21 03:12:33;;;;;;;8.30;2.17;;;4.40;74.60;;;;;;5003548;28;20056;-48
2022/01/21 03:15:00;;;;;;;13.90;2.58;;;4.40;74.80;;;;;;5021851;28;20654;-49
2022/01/21 03:17:27;;;;;;;11.40;2.38;;;4.40;74.90;;;;;;4982329;28;20073;-48
2022/01/21 03:19:54;;;;;;;8.70;2.13;;;4.40;75.00;;;;;;4996617;28;20042;-49
2022/01/21 03:22:22;;;;;;;9.65;2.30;;;4.40;75.00;;;;;;4988863;28;20049;-48
2022/01/21 03:24:49;;;;;;;12.35;3.70;;;4.40;75.00;;;;;;4998916;28;20042;-51
2022/01/21 03:27:16;;;;;;;5.88;2.10;;;4.30;75.10;;;;;;4995088;28;20643;-50
2022/01/21 03:29:44;;;;;;;9.52;2.33;;;4.30;75.20;;;;;;4997383;28;20054;-49
2022/01/21 03:32:12;;;;;;;9.63;2.38;;;4.30;75.50;;;;;;5007886;28;20711;-49
2022/01/21 03:34:39;;;;;;;6.63;3.00;;;4.30;75.60;;;;;;5003163;28;20078;-47
2022/01/21 03:37:07;;;;;;;7.65;2.97;;;4.40;75.80;;;;;;4996180;28;20042;-49
2022/01/21 03:39:34;;;;;;;8.48;2.50;;;4.40;75.90;;;;;;5004177;28;20508;-49
2022/01/21 03:42:01;;;;;;;6.57;2.38;;;4.40;75.80;;;;;;5023812;28;20160;-50
2022/01/21 03:44:28;;;;;;;9.63;2.33;;;4.40;75.70;;;;;;4999524;28;20058;-51
2022/01/21 03:46:55;;;;;;;9.45;3.60;;;4.50;75.70;;;;;;4990878;28;20042;-48
2022/01/21 03:49:22;;;;;;;6.28;2.50;;;4.50;75.60;;;;;;5016250;28;20431;-47
2022/01/21 03:51:48;;;;;;;11.38;2.15;;;4.50;75.50;;;;;;5005147;28;20054;-49
2022/01/21 03:54:16;;;;;;;9.82;2.92;;;4.50;75.20;;;;;;5001350;28;20038;-50
2022/01/21 03:56:43;;;;;;;8.80;2.00;;;4.50;75.00;;;;;;4999060;28;20042;-47
2022/01/21 03:59:10;;;;;;;12.02;3.10;;;4.50;74.90;;;;;;5007694;28;20559;-49
2022/01/21 04:01:36;;;;;;;22.15;2.90;;;4.50;74.80;;;;;;4994934;28;20051;-50
2022/01/21 04:04:04;;;;;;;8.77;2.65;;;4.50;74.80;;;;;;4991826;28;20092;-46
2022/01/21 04:06:32;;;;;;;12.02;2.55;;;4.50;74.90;;;;;;4988934;28;20529;-47
2022/01/21 04:09:00;;;;;;;9.02;2.22;;;4.40;74.80;;;;;;4987844;28;20038;-49
2022/01/21 04:11:26;;;;;;;9.80;2.20;;;4.40;74.80;;;;;;4987899;28;20413;-46
2022/01/21 04:13:55;;;;;;;5.13;2.08;;;4.40;74.70;;;;;;4995816;28;20808;-47
2022/01/21 04:16:22;;;;;;;5.68;2.00;;;4.40;74.70;;;;;;4997561;28;20060;-45
2022/01/21 04:18:50;;;;;;;6.47;2.17;;;4.30;74.60;;;;;;4989496;28;20050;-49
2022/01/21 04:21:17;;;;;;;12.00;2.50;;;4.30;74.60;;;;;;4991348;22;20542;-79
2022/01/21 04:23:44;;;;;;;7.65;2.17;;;4.30;74.70;;;;;;5001219;28;20101;-78
2022/01/21 04:26:17;;;;;;;4.82;2.40;;;4.30;74.60;;;;;;4991226;28;20062;-78
2022/01/21 04:28:44;;;;;;;8.50;2.22;;;4.30;74.70;;;;;;5002010;28;20042;-78
2022/01/21 04:31:11;;;;;;;12.23;2.58;;;4.20;74.70;;;;;;4986177;28;20486;-78
2022/01/21 04:33:45;;;;;;;11.90;2.58;;;4.20;74.70;;;;;;4986056;28;20057;-78
2022/01/21 04:36:13;;;;;;;7.80;2.03;;;4.20;74.90;;;;;;4991173;28;20457;-78
2022/01/21 04:38:40;;;;;;;12.45;2.17;;;4.20;75.00;;;;;;4971420;28;20061;-79
2022/01/21 04:49:43;;;;;;;7.32;1.80;;;4.10;74.50;;;;;;4987464;28;20045;-79
2022/01/21 04:52:11;;;;;;;3.83;1.92;;;4.10;74.60;;;;;;4983051;28;20056;-78
2022/01/21 04:54:44;;;;;;;6.90;2.08;;;4.10;74.70;;;;;;5011561;28;20890;-79
2022/01/21 04:57:12;;;;;;;6.43;2.17;;;4.00;74.70;;;;;;5008660;28;20586;-78
2022/01/21 04:59:40;;;;;;;7.53;2.00;;;4.00;74.70;;;;;;4995264;28;20046;-78
2022/01/21 05:02:07;;;;;;;4.72;1.65;;;4.00;74.90;;;;;;4988636;28;20041;-78
2022/01/21 05:04:36;;;;;;;8.27;2.10;;;4.00;74.90;;;;;;4988791;28;20049;-78
2022/01/21 05:07:06;;;;;;;7.72;2.78;;;4.00;74.90;;;;;;4980442;28;20046;-78
2022/01/21 05:09:35;;;;;;;7.28;1.65;;;3.90;74.90;;;;;;4986911;28;20561;-78
2022/01/21 05:12:08;;;;;;;6.43;2.35;;;3.90;74.90;;;;;;4999326;28;20042;-76
2022/01/21 05:15:06;;;;;;;5.65;2.30;;;3.90;75.00;;;;;;4987393;28;20494;-76
2022/01/21 05:17:41;;;;;;;6.20;2.72;;;3.90;75.00;;;;;;5011705;28;20042;-76
2022/01/21 05:20:10;;;;;;;7.05;1.85;;;3.90;75.00;;;;;;4978421;28;20046;-75
2022/01/21 05:22:44;;;;;;;5.75;1.80;;;3.90;75.00;;;;;;4987831;28;20050;-77
2022/01/21 05:25:17;;;;;;;6.40;2.28;;;3.90;75.00;;;;;;4990014;28;20509;-78
2022/01/21 05:27:48;;;;;;;8.10;2.08;;;3.90;75.00;;;;;;4987915;28;20076;-78
2022/01/21 05:30:16;;;;;;;14.23;2.50;;;3.80;75.00;;;;;;4990025;28;20061;-76
2022/01/21 05:32:56;;;;;;;7.40;1.85;;;3.80;75.00;;;;;;5006686;28;20141;-77
2022/01/21 05:35:52;;;;;;;8.88;2.17;;;3.80;75.00;;;;;;4990067;28;20517;-78
2022/01/21 05:38:35;;;;;;;16.05;3.03;;;3.80;75.10;;;;;;4989362;28;20073;-76
2022/01/21 05:41:13;;;;;;;7.18;1.80;;;3.80;75.10;;;;;;4992503;28;20060;-76
2022/01/21 05:47:09;;;;;;;4.53;1.67;;;3.70;75.10;;;;;;4995281;28;20113;-78
2022/01/21 05:49:50;;;;;;;5.03;2.13;;;3.70;75.20;;;;;;5016123;28;20399;-78
2022/01/21 05:52:41;;;;;;;6.68;2.20;;;3.70;75.20;;;;;;5008910;28;20057;-76
2022/01/21 05:55:33;;;;;;;5.28;1.88;;;3.70;75.30;;;;;;5005167;28;20042;-75
2022/01/21 05:58:15;;;;;;;5.45;1.95;;;3.70;75.30;;;;;;4992030;28;20700;-76
2022/01/21 06:00:47;;;;;;;6.07;1.95;;;3.60;75.30;;;;;;5016391;28;20481;-76
2022/01/21 06:03:15;;;;;;;9.07;2.35;;;3.60;75.50;;;;;;5007237;28;20428;-79
2022/01/21 06:05:43;;;;;;;9.63;2.30;;;3.60;75.60;;;;;;4985428;28;20052;-76
2022/01/21 06:08:11;;;;;;;5.90;2.05;;;3.60;75.60;;;;;;4991559;28;20030;-79
2022/01/21 06:10:38;;;;;;;7.10;1.60;;;3.60;75.80;;;;;;4973457;28;20038;-76
2022/01/21 06:13:05;;;;;;;6.57;1.90;;;3.60;75.70;;;;;;4999405;28;20054;-77
2022/01/21 06:15:32;;;;;;;6.32;2.03;;;3.60;75.70;;;;;;5011465;28;20582;-77
2022/01/21 06:17:58;;;;;;;7.82;2.17;;;3.60;75.80;;;;;;4991395;28;20084;-76
2022/01/21 06:20:25;;;;;;;4.15;1.88;;;3.60;75.80;;;;;;5006138;28;20073;-76
2022/01/21 06:22:52;;;;;;;11.30;2.53;;;3.60;75.80;;;;;;5007265;28;20626;-75
2022/01/21 06:25:19;;;;;;;9.15;2.33;;;3.60;75.80;;;;;;4976888;28;20049;-76
2022/01/21 06:27:46;;;;;;;5.10;1.80;;;3.60;75.90;;;;;;4989375;28;20048;-75
2022/01/21 06:30:13;;;;;;;8.23;2.35;;;3.60;76.10;;;;;;4988972;28;20365;-75
2022/01/21 06:32:41;;;;;;;8.13;2.35;;;3.60;76.10;;;;;;4984387;28;20819;-75
2022/01/21 06:35:10;;;;;;;8.15;2.40;;;3.60;76.10;;;;;;4966929;28;20062;-74
2022/01/21 06:37:37;;;;;;;8.52;2.10;;;3.60;76.20;;;;;;4987190;28;20121;-74
2022/01/21 06:40:06;;;;;;;12.88;3.58;;;3.60;76.40;;;;;;5007317;28;20411;-75
2022/01/21 06:42:33;;;;;;;5.50;2.65;;;3.60;76.60;;;;;;4974923;28;20136;-76
2022/01/21 06:45:01;;;;;;;8.60;4.22;;;3.60;76.80;;;;;;4994570;28;20060;-74
2022/01/21 06:47:29;;;;;;;9.27;2.60;;;3.60;77.10;;;;;;5005515;28;20029;-75
2022/01/21 06:49:59;;;;;;;8.07;2.65;;;3.70;77.20;;;;;;5025187;28;20409;-74
2022/01/21 06:52:30;;;;;;;7.57;2.55;;;3.70;77.20;;;;;;5002642;28;20088;-76
2022/01/21 06:54:58;;;;;;;15.88;3.72;;;3.70;77.30;;;;;;4984567;28;20050;-75
2022/01/21 06:57:26;;;;;;;10.32;3.20;;;3.80;77.40;;;;;;5016390;28;20048;-74
2022/01/21 06:59:53;;;;;;;5.97;2.70;;;3.80;77.20;;;;;;4987992;28;20073;-75
2022/01/21 07:02:20;;;;;;;7.53;2.50;;;3.80;77.10;;;;;;4987988;28;20045;-74
2022/01/21 07:04:48;;;;;;;7.50;3.40;;;3.90;76.80;;;;;;4989636;28;20401;-74
2022/01/21 07:07:20;;;;;;;8.68;2.80;;;3.90;76.60;;;;;;5012385;28;20097;-74
2022/01/21 07:09:47;;;;;;;5.55;2.83;;;3.90;76.40;;;;;;5016337;28;20033;-76
2022/01/21 07:12:14;;;;;;;5.03;2.17;;;3.90;76.30;;;;;;4983678;28;20045;-75
2022/01/21 07:14:41;;;;;;;7.40;2.78;;;3.90;76.20;;;;;;4987090;28;20050;-74
2022/01/21 07:17:08;;;;;;;7.18;2.55;;;3.90;76.10;;;;;;5008449;28;20429;-75
2022/01/21 07:19:35;;;;;;;10.45;3.47;;;3.90;76.10;;;;;;5023695;28;20056;-76
2022/01/21 07:22:02;;;;;;;7.30;3.55;;;3.90;76.10;;;;;;4984509;28;20053;-74
2022/01/21 07:24:29;;;;;;;7.63;2.70;;;3.80;76.20;;;;;;5005131;28;20041;-74
2022/01/21 07:26:56;;;;;;;5.45;2.72;;;3.80;76.30;;;;;;5009241;28;20048;-74
2022/01/21 07:29:23;;;;;;;7.45;3.10;;;3.80;76.40;;;;;;5007055;28;20056;-74
2022/01/21 07:31:54;;;;;;;7.85;3.15;;;3.80;76.30;;;;;;4988417;28;20068;-74
2022/01/21 07:34:22;;;;;;;6.07;2.95;;;3.80;76.30;;;;;;5008693;28;20053;-75
2022/01/21 07:36:49;;;;;;;6.95;3.13;;;3.80;76.30;;;;;;5003973;28;20061;-74
2022/01/21 07:39:16;;;;;;;6.78;2.47;;;3.80;76.30;;;;;;4986788;28;20045;-75
2022/01/21 07:41:43;;;;;;;6.28;3.00;;;3.80;76.40;;;;;;4995955;28;20041;-74
2022/01/21 07:44:12;;;;;;;10.63;3.03;;;3.80;76.50;;;;;;5004784;28;20038;-75
2022/01/21 07:46:41;;;;;;;7.43;3.30;;;3.80;76.70;;;;;;4986991;28;20674;-73
2022/01/21 07:49:09;;;;;;;8.55;3.15;;;3.80;76.70;;;;;;5004946;28;20053;-74
2022/01/21 07:51:37;;;;;;;16.30;3.70;;;3.80;76.80;;;;;;4987761;28;20418;-75
2022/01/21 07:54:05;;;;;;;6.07;2.88;;;3.80;76.80;;;;;;4990197;28;20046;-76
2022/01/21 07:56:33;;;;;;;8.65;3.83;;;3.80;76.80;;;;;;4999138;28;20054;-74
2022/01/21 07:59:06;;;;;;;7.03;3.22;;;3.80;76.90;;;;;;4986744;28;20059;-74
2022/01/21 08:01:33;;;;;;;5.00;3.15;;;3.80;76.90;;;;;;4987047;28;20061;-74
2022/01/21 08:04:00;;;;;;;10.57;4.10;;;3.90;77.00;;;;;;4987898;28;20085;-74
2022/01/21 08:06:27;;;;;;;9.40;4.28;;;3.90;77.10;;;;;;4988984;28;20032;-76
2022/01/21 08:08:54;;;;;;;8.68;4.90;;;3.90;77.10;;;;;;4993875;28;20604;-74
2022/01/21 08:11:22;;;;;;;10.25;4.03;;;3.90;77.20;;;;;;5006655;28;20046;-74
2022/01/21 08:13:49;;;;;;;13.55;3.88;;;3.90;77.20;;;;;;4995788;28;20050;-74
2022/01/21 08:16:17;;;;;;;5.30;3.70;;;3.90;77.20;;;;;;5011230;28;20054;-75
2022/01/21 08:18:45;;;;;;;9.02;3.90;;;3.90;77.10;;;;;;5005248;28;20052;-75
2022/01/21 08:21:18;;;;;;;8.68;4.50;;;3.90;77.10;;;;;;4992439;28;20057;-74
2022/01/21 08:23:47;;;;;;;11.73;4.47;;;4.00;77.10;;;;;;5003855;28;20045;-75
2022/01/21 08:26:14;;;;;;;9.70;4.28;;;4.00;77.10;;;;;;5007196;28;20033;-74
2022/01/21 08:28:41;;;;;;;13.15;4.53;;;4.00;77.10;;;;;;5011484;28;20034;-76
2022/01/21 08:31:07;;;;;;;9.07;4.70;;;4.00;77.10;;;;;;5004752;28;20510;-73
2022/01/21 08:33:34;;;;;;;9.45;4.25;;;4.00;77.10;;;;;;5013203;28;20045;-74
2022/01/21 08:36:01;;;;;;;7.47;4.85;;;4.00;77.10;;;;;;5012622;28;20042;-75
2022/01/21 08:38:28;;;;;;;11.43;5.15;;;4.10;77.20;;;;;;5007801;28;20502;-74
2022/01/21 08:40:55;;;;;;;7.97;4.53;;;4.10;77.20;;;;;;4984199;28;20046;-74
2022/01/21 08:43:21;;;;;;;12.43;5.20;;;4.10;77.20;;;;;;4966474;28;20046;-74
2022/01/21 08:45:48;;;;;;;9.45;5.25;;;4.10;77.30;;;;;;4967019;28;20053;-74
2022/01/21 08:48:15;;;;;;;14.25;5.35;;;4.10;77.40;;;;;;5013030;28;20029;-74
2022/01/21 08:50:42;;;;;;;9.63;4.93;;;4.20;77.60;;;;;;5004651;28;20056;-75
2022/01/21 08:53:36;;;;;;;8.73;5.03;;;4.20;77.60;;;;;;4996860;28;20034;-74
2022/01/21 08:55:57;;;;;;;9.65;4.45;;;4.20;77.70;;;;;;5006549;28;20053;-74
2022/01/21 08:58:25;;;;;;;8.80;4.72;;;4.20;77.70;;;;;;4986954;28;20048;-74
2022/01/21 09:00:53;;;;;;;6.63;4.45;;;4.30;77.90;;;;;;4989391;28;20065;-74
2022/01/21 09:03:20;;;;;;;10.30;4.63;;;4.30;78.00;;;;;;5011362;28;20073;-74
2022/01/21 09:05:51;;;;;;;7.88;4.93;;;4.40;78.00;;;;;;4987391;28;20521;-74
2022/01/21 09:08:22;;;;;;;9.13;5.18;;;4.40;78.00;;;;;;4993307;28;20046;-75
2022/01/21 09:10:51;;;;;;;7.70;4.88;;;4.50;78.10;;;;;;4984672;28;20050;-74
2022/01/21 09:13:19;;;;;;;12.07;5.53;;;4.50;78.00;;;;;;5006047;28;20046;-76
2022/01/21 09:15:45;;;;;;;15.32;6.15;;;4.60;78.00;;;;;;5008819;28;20050;-74
2022/01/21 09:18:17;;;;;;;12.30;5.43;;;4.70;78.10;;;;;;5009590;28;20093;-76
2022/01/21 09:20:46;;;;;;;5.50;4.75;;;4.70;78.10;;;;;;4987651;28;20061;-76
2022/01/21 09:23:13;;;;;;;7.22;4.30;;;4.80;78.20;;;;;;4992749;28;20417;-76
2022/01/21 09:25:40;;;;;;;11.23;4.93;;;4.80;78.20;;;;;;5006360;28;20038;-74
2022/01/21 09:28:07;;;;;;;11.90;5.38;;;4.90;78.20;;;;;;4997563;28;20034;-74
2022/01/21 09:30:34;;;;;;;11.63;6.10;;;4.90;78.20;;;;;;5011202;28;20049;-75
2022/01/21 09:33:01;;;;;;;8.05;4.90;;;5.00;78.20;;;;;;5012183;28;20045;-74
2022/01/21 09:35:28;;;;;;;11.73;4.75;;;5.10;78.20;;;;;;4988312;28;20049;-74
2022/01/21 09:37:54;;;;;;;10.43;5.40;;;5.20;78.20;;;;;;5005130;28;20053;-74
2022/01/21 09:40:46;;;;;;;12.40;5.65;;;5.20;78.30;;;;;;5005751;28;20056;-75
2022/01/21 09:43:14;;;;;;;7.28;4.53;;;5.40;78.20;;;;;;4982713;28;20064;-74
2022/01/21 09:45:42;;;;;;;9.05;5.07;;;5.50;78.10;;;;;;4972013;28;20045;-75
2022/01/21 09:48:10;;;;;;;10.43;5.15;;;5.50;77.80;;;;;;5008355;28;20041;-75
2022/01/21 09:50:38;;;;;;;11.35;5.28;;;5.60;77.70;;;;;;4983631;28;20076;-74
2022/01/21 09:53:06;;;;;;;6.68;4.30;;;5.80;77.70;;;;;;4986413;28;20045;-74
2022/01/21 09:55:33;;;;;;;10.18;4.88;;;5.80;77.60;;;;;;5004207;28;20056;-75
2022/01/21 09:58:01;;;;;;;9.25;6.07;;;5.80;77.50;;;;;;4985339;28;20046;-75
2022/01/21 10:00:28;;;;;;;9.07;6.15;;;5.90;77.40;;;;;;4976499;28;20050;-76
2022/01/21 10:03:01;;;;;;;10.05;5.97;;;6.00;77.20;;;;;;4974101;28;20062;-75
2022/01/21 10:05:28;;;;;;;10.32;7.10;;;6.10;76.90;;;;;;4987863;28;20062;-75
2022/01/21 10:07:58;;;;;;;9.35;6.82;;;6.20;76.70;;;;;;4987775;28;20049;-75
2022/01/21 10:10:25;;;;;;;8.38;6.22;;;6.20;76.30;;;;;;4973484;28;20058;-76
2022/01/21 10:13:01;;;;;;;11.15;7.30;;;6.30;76.00;;;;;;4989799;28;20065;-75
2022/01/21 10:15:28;;;;;;;10.73;6.13;;;6.30;75.70;;;;;;4996188;28;20682;-75
2022/01/21 10:18:00;;;;;;;10.15;6.50;;;6.30;75.70;;;;;;4977179;28;20402;-76
2022/01/21 10:21:12;;;;;;;12.77;6.30;;;6.40;75.90;;;;;;5005769;28;20108;-75
2022/01/21 10:23:42;;;;;;;10.80;7.55;;;6.40;76.10;;;;;;4986974;28;20045;-75
2022/01/21 10:26:15;;;;;;;11.07;5.90;;;6.40;76.00;;;;;;4984125;28;20743;-76
2022/01/21 10:28:44;;;;;;;12.60;7.28;;;6.40;75.80;;;;;;4989892;28;20049;-75
2022/01/21 10:31:17;;;;;;;10.95;6.38;;;6.40;75.90;;;;;;4988213;28;20061;-74
2022/01/21 10:33:48;;;;;;;11.15;6.45;;;6.50;75.90;;;;;;4973788;28;20042;-74
2022/01/21 10:36:24;;;;;;;11.55;6.80;;;6.50;76.00;;;;;;4983392;28;20108;-76
2022/01/21 10:39:09;;;;;;;9.43;6.65;;;6.50;76.00;;;;;;4989490;28;20152;-75
2022/01/21 10:41:41;;;;;;;12.02;6.30;;;6.50;76.10;;;;;;4976569;28;20057;-75
2022/01/21 10:44:14;;;;;;;8.68;6.32;;;6.60;76.20;;;;;;4998951;28;20057;-75
2022/01/21 10:46:59;;;;;;;;;;;6.70;76.40;;;;;;5005826;28;20072;-75
2022/01/21 10:49:26;;;;;;;7.53;4.32;;;6.80;76.50;;;;;;4981179;28;19925;-75
2022/01/21 10:51:55;;;;;;;9.57;4.82;;;6.90;76.40;;;;;;4985402;28;20041;-76
2022/01/21 10:54:29;;;;;;;6.75;4.72;;;7.00;76.30;;;;;;4982573;28;20391;-75
2022/01/21 10:57:17;;;;;;;6.55;3.67;;;7.00;76.10;;;;;;4971167;28;20054;-76
2022/01/21 10:59:49;;;;;;;6.60;3.90;;;7.10;75.70;;;;;;5000650;28;20053;-74
2022/01/21 11:02:42;;;;;;;6.03;4.13;;;7.20;75.80;;;;;;4986612;28;20061;-75
2022/01/21 11:05:30;;;;;;;6.18;3.70;;;7.20;75.30;;;;;;5007210;28;20030;-75
2022/01/21 11:08:04;;;;;;;7.35;3.67;;;7.30;75.40;;;;;;4979881;28;20058;-75
2022/01/21 11:10:37;;;;;;;6.18;3.60;;;7.40;75.20;;;;;;4986767;28;20050;-75
2022/01/21 11:13:19;;;;;;;5.80;4.07;;;7.40;75.10;;;;;;4988604;28;20046;-75
2022/01/21 11:15:56;;;;;;;6.78;3.42;;;7.50;75.00;;;;;;4959500;28;20054;-76
2022/01/21 11:19:07;;;;;;;6.97;3.85;;;7.60;75.10;;;;;;4985436;28;20057;-75
2022/01/21 11:21:38;;;;;;;7.38;3.65;;;7.70;74.70;;;;;;4985466;28;20049;-75
2022/01/21 11:24:07;;;;;;;6.82;4.25;;;7.80;74.90;;;;;;4965794;28;20060;-76
2022/01/21 11:26:34;;;;;;;7.38;4.03;;;7.80;75.00;;;;;;4969813;28;20391;-76
2022/01/21 11:29:03;;;;;;;8.07;4.18;;;7.80;74.90;;;;;;5003871;28;20038;-75
2022/01/21 11:31:31;;;;;;;7.55;4.85;;;7.90;74.80;;;;;;5003755;28;20046;-75
2022/01/21 11:34:09;;;;;;;7.82;5.60;;;7.90;74.60;;;;;;4973604;28;20049;-75
2022/01/21 11:36:36;;;;;;;9.75;5.30;;;8.00;74.20;;;;;;4982765;28;20042;-76
2022/01/21 11:39:05;;;;;;;9.07;5.63;;;8.00;73.70;;;;;;4984873;28;20046;-75
2022/01/21 11:41:35;;;;;;;12.82;7.07;;;8.20;73.60;;;;;;4979596;28;20100;-75
2022/01/21 11:44:04;;;;;;;9.65;5.75;;;8.10;73.40;;;;;;4979629;28;20038;-76
2022/01/21 11:49:01;;;;;;;9.57;5.82;;;8.10;73.50;;;;;;4984364;28;20042;-75
2022/01/21 11:51:33;;;;;;;7.68;5.68;;;8.10;73.50;;;;;;4997061;28;20100;-76
2022/01/21 11:54:02;;;;;;;4.43;3.45;;;8.10;73.50;;;;;;4984376;28;20050;-75
2022/01/21 11:56:32;;;;;;;6.30;5.00;;;8.10;73.60;;;;;;4997507;28;20064;-75
2022/01/21 11:59:10;;;;;;;11.15;5.18;;;8.20;73.40;;;;;;4989816;28;20049;-75
2022/01/21 12:01:47;;;;;;;7.30;5.40;;;8.20;73.70;;;;;;4980749;28;20046;-76
2022/01/21 12:04:36;;;;;;;10.68;4.57;;;8.20;73.80;;;;;;4971306;28;20057;-76
2022/01/21 12:07:03;;;;;;;8.15;4.40;;;8.20;73.10;;;;;;4986901;28;20042;-75
2022/01/21 12:09:56;;;;;;;7.68;4.25;;;8.20;73.20;;;;;;4980306;28;20042;-76
2022/01/21 12:12:24;;;;;;;5.25;3.85;;;8.20;73.40;;;;;;4984368;28;20048;-75
2022/01/21 12:14:58;;;;;;;4.53;3.60;;;8.30;73.90;;;;;;4984910;28;20038;-75
2022/01/21 12:17:47;;;;;;;6.45;4.15;;;8.20;74.00;;;;;;4988294;28;20041;-76
2022/01/21 12:20:14;;;;;;;9.15;4.28;;;8.30;73.80;;;;;;5008435;28;20048;-75
2022/01/21 12:22:41;;;;;;;10.75;4.60;;;8.40;74.00;;;;;;4986908;28;20053;-75
2022/01/21 12:25:10;;;;;;;8.95;4.03;;;8.50;74.00;;;;;;5001970;28;20060;-75
2022/01/21 12:27:40;;;;;;;9.70;4.53;;;8.50;73.80;;;;;;4988035;28;20781;-76
2022/01/21 12:30:29;;;;;;;5.35;3.42;;;8.60;73.70;;;;;;4974331;28;20042;-75
2022/01/21 12:33:09;;;;;;;11.52;4.28;;;8.70;73.00;;;;;;4993444;28;20042;-76
2022/01/21 12:35:56;;;;;;;7.78;4.60;;;8.70;73.00;;;;;;5006929;28;20095;-75
2022/01/21 12:41:20;;;;;;;6.53;3.58;;;8.80;72.30;;;;;;4988249;28;20068;-76
2022/01/21 12:43:49;;;;;;;5.85;4.30;;;8.80;72.10;;;;;;5007361;28;20053;-76
2022/01/21 12:46:27;;;;;;;5.43;3.95;;;8.80;72.40;;;;;;4990545;28;20066;-75
2022/01/21 12:48:56;;;;;;;8.25;3.97;;;8.80;72.40;;;;;;4996953;28;20046;-76
2022/01/21 12:57:33;;;;;;;9.38;4.55;;;8.90;72.00;;;;;;4988172;28;20050;-76
2022/01/21 13:00:09;;;;;;;7.88;4.18;;;8.90;72.30;;;;;;4989035;28;20057;-76
2022/01/21 13:02:37;;;;;;;4.75;3.75;;;8.80;72.20;;;;;;4990468;28;20485;-75
2022/01/21 13:05:18;;;;;;;9.95;4.63;;;8.80;72.30;;;;;;4988588;28;20041;-76
2022/01/21 13:08:10;;;;;;;6.75;4.20;;;8.80;72.00;;;;;;4960668;28;20089;-75
2022/01/21 13:10:38;;;;;;;2.92;2.55;;;8.80;72.10;;;;;;4985567;28;20101;-75
2022/01/21 13:15:38;;;;;;;10.02;4.30;;;8.70;72.40;;;;;;4999637;28;20050;-75
2022/01/21 13:18:12;;;;;;;9.63;4.88;;;8.70;72.30;;;;;;4982423;28;20038;-75
2022/01/21 13:20:42;;;;;;;8.25;4.53;;;8.70;72.40;;;;;;4989626;28;20046;-75
2022/01/21 13:23:09;;;;;;;8.73;4.40;;;8.70;72.50;;;;;;4986976;28;20046;-75
2022/01/21 13:25:36;;;;;;;6.78;4.30;;;8.70;72.70;;;;;;4979229;28;20430;-75
2022/01/21 13:28:05;;;;;;;9.18;4.53;;;8.70;72.80;;;;;;4999842;28;20091;-76
2022/01/21 13:30:36;;;;;;;6.85;3.95;;;8.70;72.80;;;;;;5014251;28;20060;-75
2022/01/21 13:33:10;;;;;;;7.10;3.72;;;8.70;72.90;;;;;;4989731;28;20042;-75
2022/01/21 13:35:43;;;;;;;6.32;3.42;;;8.70;73.00;;;;;;4990128;28;20050;-76
2022/01/21 13:38:12;;;;;;;;;;;8.70;73.10;;;;;;5008582;28;20049;-76
2022/01/21 13:40:43;;;;;;;6.72;3.40;;;8.80;73.10;;;;;;4990263;28;19928;-76
2022/01/21 13:43:13;;;;;;;7.45;4.00;;;8.70;72.90;;;;;;4974936;28;20045;-75
2022/01/21 13:45:52;;;;;;;6.55;2.67;;;8.80;73.00;;;;;;5005116;28;20045;-76
2022/01/21 13:48:19;;;;;;;7.07;3.45;;;8.70;73.00;;;;;;4989554;28;20534;-75
2022/01/21 13:50:47;;;;;;;7.05;2.72;;;8.70;73.10;;;;;;4989303;28;20061;-75
2022/01/21 13:53:14;;;;;;;6.43;2.78;;;8.80;73.20;;;;;;5009419;28;20530;-75
2022/01/21 13:55:47;;;;;;;9.30;2.85;;;8.70;73.20;;;;;;4988233;28;20095;-75
2022/01/21 13:58:21;;;;;;;8.90;2.88;;;8.80;73.30;;;;;;5019850;28;20742;-75
2022/01/21 14:00:57;;;;;;;4.85;2.72;;;8.80;73.30;;;;;;4995130;28;20407;-75
2022/01/21 14:03:33;;;;;;;7.28;2.80;;;8.80;73.30;;;;;;4976587;28;20058;-75
2022/01/21 14:06:07;;;;;;;9.13;3.40;;;8.80;73.30;;;;;;5005004;28;20545;-75
2022/01/21 14:08:42;;;;;;;5.97;3.30;;;8.80;73.40;;;;;;4985893;28;20360;-77
2022/01/21 14:11:14;;;;;;;12.90;3.72;;;8.80;73.30;;;;;;4993507;28;20445;-77
2022/01/21 14:13:47;;;;;;;9.52;2.75;;;8.80;73.40;;;;;;5010618;28;20038;-75
2022/01/21 14:16:23;;;;;;;12.57;3.78;;;8.80;73.40;;;;;;4987123;28;20045;-75